createdAt,value
2023-05-01T00:00:24.521Z,101383.31
2023-05-01T00:02:57.174Z,101390.69
2023-05-01T00:05:29.769Z,101385.31
2023-05-01T00:08:03.262Z,101382.53
2023-05-01T00:10:36.699Z,101377.13
2023-05-01T00:13:10.096Z,101367.75
2023-05-01T00:15:43.236Z,101371.25
2023-05-01T00:18:16.868Z,101361.59
2023-05-01T00:20:49.423Z,101363.00
2023-05-01T00:23:21.939Z,101353.22
2023-05-01T00:25:54.646Z,101361.19
2023-05-01T00:28:27.308Z,101360.34
2023-05-01T00:30:59.947Z,101352.28
2023-05-01T00:33:32.519Z,101353.28
2023-05-01T00:36:05.279Z,101340.09
2023-05-01T00:38:37.740Z,101338.44
2023-05-01T00:41:10.503Z,101344.66
2023-05-01T00:43:43.170Z,101340.03
2023-05-01T00:46:15.949Z,101337.31
2023-05-01T00:48:48.652Z,101327.72
2023-05-01T00:51:22.401Z,101336.81
2023-05-01T00:53:56.411Z,101329.53
2023-05-01T00:56:31.041Z,101332.31
2023-05-01T00:59:04.091Z,101325.31
2023-05-01T01:01:36.839Z,101316.44
2023-05-01T01:04:09.486Z,101319.94
2023-05-01T01:07:11.902Z,101309.38
2023-05-01T01:10:05.325Z,101305.16
2023-05-01T01:12:57.308Z,101312.28
2023-05-01T01:15:44.586Z,101294.66
2023-05-01T01:18:23.715Z,101291.94
2023-05-01T01:21:35.032Z,101284.97
2023-05-01T01:24:46.340Z,101287.53
2023-05-01T01:28:04.736Z,101282.34
2023-05-01T01:31:14.234Z,101275.41
2023-05-01T01:34:04.209Z,101269.25
2023-05-01T01:37:02.275Z,101254.09
2023-05-01T01:39:52.917Z,101263.94
2023-05-01T01:42:36.383Z,101261.47
2023-05-01T01:45:24.084Z,101255.03
2023-05-01T01:47:57.847Z,101249.84
2023-05-01T01:50:33.271Z,101246.44
2023-05-01T01:53:11.776Z,101245.66
2023-05-01T01:55:48.227Z,101245.66
2023-05-01T01:58:26.193Z,101242.09
2023-05-01T02:00:59.196Z,101240.63
2023-05-01T02:03:34.148Z,101238.66
2023-05-01T02:06:08.521Z,101235.88
2023-05-01T02:08:44.022Z,101238.94
2023-05-01T02:11:21.086Z,101226.44
2023-05-01T02:13:56.046Z,101231.81
2023-05-01T02:16:29.466Z,101226.50
2023-05-01T02:19:05.178Z,101224.94
2023-05-01T02:21:39.550Z,101225.75
2023-05-01T02:24:13.517Z,101220.38
2023-05-01T02:26:55.633Z,101231.16
2023-05-01T02:29:28.209Z,101218.25
2023-05-01T02:32:01.329Z,101215.59
2023-05-01T02:34:37.163Z,101214.56
2023-05-01T02:37:12.458Z,101209.22
2023-05-01T02:39:45.068Z,101204.91
2023-05-01T02:42:22.562Z,101196.78
2023-05-01T02:45:04.106Z,101195.06
2023-05-01T02:47:44.850Z,101194.44
2023-05-01T02:50:19.356Z,101194.34
2023-05-01T02:52:52.464Z,101195.28
2023-05-01T02:55:26.315Z,101184.56
2023-05-01T02:57:59.825Z,101180.22
2023-05-01T03:00:32.472Z,101180.16
2023-05-01T03:03:05.038Z,101177.56
2023-05-01T03:05:39.504Z,101175.06
2023-05-01T03:08:13.395Z,101173.31
2023-05-01T03:10:46.090Z,101163.53
2023-05-01T03:13:18.665Z,101167.94
2023-05-01T03:15:51.228Z,101165.28
2023-05-01T03:18:23.819Z,101163.59
2023-05-01T03:20:59.410Z,101167.28
2023-05-01T03:23:34.482Z,101156.75
2023-05-01T03:26:07.701Z,101153.00
2023-05-01T03:28:40.203Z,101150.31
2023-05-01T03:31:12.675Z,101150.63
2023-05-01T03:33:45.194Z,101143.50
2023-05-01T03:36:17.916Z,101139.09
2023-05-01T03:38:50.622Z,101139.94
2023-05-01T03:41:23.559Z,101141.91
2023-05-01T03:43:56.078Z,101141.84
2023-05-01T03:46:29.794Z,101137.63
2023-05-01T03:49:02.293Z,101139.34
2023-05-01T03:51:34.763Z,101128.75
2023-05-01T03:54:07.294Z,101136.78
2023-05-01T03:56:39.819Z,101133.09
2023-05-01T03:59:12.393Z,101126.94
2023-05-01T04:01:45.041Z,101127.13
2023-05-01T04:04:17.631Z,101129.13
2023-05-01T04:06:53.432Z,101122.00
2023-05-01T04:09:26.080Z,101128.16
2023-05-01T04:11:58.962Z,101128.16
2023-05-01T04:14:31.668Z,101124.00
2023-05-01T04:17:04.264Z,101125.69
2023-05-01T04:19:37.871Z,101133.72
2023-05-01T04:22:10.442Z,101111.50
2023-05-01T04:24:42.932Z,101130.22
2023-05-01T04:27:15.585Z,101132.31
2023-05-01T04:29:48.137Z,101150.28
2023-05-01T04:32:20.754Z,101136.72
2023-05-01T04:34:53.667Z,101138.34
2023-05-01T04:37:26.161Z,101139.97
2023-05-01T04:39:58.877Z,101142.44
2023-05-01T04:42:32.931Z,101129.13
2023-05-01T04:45:06.472Z,101128.03
2023-05-01T04:47:39.048Z,101129.06
2023-05-01T04:50:12.174Z,101123.69
2023-05-01T04:52:44.721Z,101121.22
2023-05-01T04:55:18.147Z,101126.28
2023-05-01T04:57:50.703Z,101122.84
2023-05-01T05:00:23.885Z,101120.97
2023-05-01T05:02:56.773Z,101118.31
2023-05-01T05:05:29.427Z,101114.97
2023-05-01T05:08:03.039Z,101115.00
2023-05-01T05:10:35.859Z,101120.84
2023-05-01T05:13:09.944Z,101119.75
2023-05-01T05:15:43.209Z,101118.78
2023-05-01T05:18:15.879Z,101117.31
2023-05-01T05:20:48.535Z,101109.91
2023-05-01T05:23:21.534Z,101111.72
2023-05-01T05:25:54.035Z,101114.13
2023-05-01T05:28:30.005Z,101125.56
2023-05-01T05:31:02.545Z,101120.59
2023-05-01T05:33:35.030Z,101116.78
2023-05-01T05:36:07.659Z,101117.97
2023-05-01T05:38:40.563Z,101114.13
2023-05-01T05:41:13.136Z,101111.19
2023-05-01T05:43:45.730Z,101113.63
2023-05-01T05:46:18.220Z,101109.69
2023-05-01T05:48:50.735Z,101113.47
2023-05-01T05:51:23.299Z,101116.59
2023-05-01T05:53:56.000Z,101117.94
2023-05-01T05:56:28.449Z,101120.75
2023-05-01T05:59:03.526Z,101120.31
2023-05-01T06:01:37.781Z,101118.09
2023-05-01T06:04:11.566Z,101120.38
2023-05-01T06:06:44.286Z,101111.94
2023-05-01T06:09:19.009Z,101114.22
2023-05-01T06:11:51.690Z,101106.91
2023-05-01T06:14:24.484Z,101109.78
2023-05-01T06:16:57.109Z,101107.63
2023-05-01T06:19:29.700Z,101110.97
2023-05-01T06:22:02.212Z,101116.50
2023-05-01T06:24:36.580Z,101114.91
2023-05-01T06:27:09.121Z,101110.22
2023-05-01T06:29:41.833Z,101114.47
2023-05-01T06:32:14.317Z,101105.28
2023-05-01T06:34:46.986Z,101104.41
2023-05-01T06:37:19.578Z,101113.06
2023-05-01T06:39:52.126Z,101113.97
2023-05-01T06:42:24.611Z,101105.50
2023-05-01T06:44:57.202Z,101098.72
2023-05-01T06:47:29.780Z,101098.63
2023-05-01T06:50:05.573Z,101098.38
2023-05-01T06:52:38.496Z,101094.28
2023-05-01T06:55:12.375Z,101098.41
2023-05-01T06:57:44.898Z,101097.34
2023-05-01T07:00:18.463Z,101104.00
2023-05-01T07:02:51.177Z,101105.56
2023-05-01T07:05:23.951Z,101101.25
2023-05-01T07:08:01.102Z,101101.09
2023-05-01T07:10:34.239Z,101098.53
2023-05-01T07:13:06.784Z,101093.81
2023-05-01T07:15:42.183Z,101096.41
2023-05-01T07:18:15.030Z,101103.28
2023-05-01T07:20:49.821Z,101099.16
2023-05-01T07:23:23.654Z,101099.19
2023-05-01T07:25:56.953Z,101101.97
2023-05-01T07:28:30.301Z,101100.91
2023-05-01T07:31:02.891Z,101103.16
2023-05-01T07:33:35.500Z,101105.03
2023-05-01T07:36:08.171Z,101105.13
2023-05-01T07:38:40.760Z,101108.25
2023-05-01T07:41:13.325Z,101103.31
2023-05-01T07:43:45.849Z,101106.66
2023-05-01T07:46:18.524Z,101103.16
2023-05-01T07:48:51.775Z,101101.28
2023-05-01T07:51:24.356Z,101108.69
2023-05-01T07:53:57.280Z,101111.22
2023-05-01T07:56:31.315Z,101106.50
2023-05-01T07:59:03.837Z,101110.47
2023-05-01T08:01:36.547Z,101106.50
2023-05-01T08:04:09.285Z,101104.03
2023-05-01T08:06:41.902Z,101104.25
2023-05-01T08:09:14.400Z,101094.44
2023-05-01T08:11:46.978Z,101105.91
2023-05-01T08:14:19.531Z,101093.53
2023-05-01T08:16:55.476Z,101092.03
2023-05-01T08:19:28.460Z,101090.34
2023-05-01T08:22:00.993Z,101095.84
2023-05-01T08:24:33.473Z,101099.81
2023-05-01T08:27:06.039Z,101096.72
2023-05-01T08:29:38.715Z,101094.06
2023-05-01T08:32:11.488Z,101098.09
2023-05-01T08:34:44.174Z,101088.84
2023-05-01T08:37:18.868Z,101095.94
2023-05-01T08:39:51.680Z,101094.34
2023-05-01T08:42:24.703Z,101097.22
2023-05-01T08:45:04.135Z,101093.00
2023-05-01T08:47:39.184Z,101099.31
2023-05-01T08:50:14.009Z,101092.00
2023-05-01T08:52:48.556Z,101106.16
2023-05-01T08:55:22.231Z,101097.81
2023-05-01T08:57:57.748Z,101106.16
2023-05-01T09:00:31.658Z,101112.00
2023-05-01T09:03:05.560Z,101101.25
2023-05-01T09:05:38.759Z,101103.31
2023-05-01T09:08:11.266Z,101106.66
2023-05-01T09:10:51.680Z,101104.66
2023-05-01T09:13:25.458Z,101104.38
2023-05-01T09:15:58.094Z,101101.91
2023-05-01T09:18:31.362Z,101096.84
2023-05-01T09:21:04.630Z,101100.66
2023-05-01T09:23:37.711Z,101100.50
2023-05-01T09:26:10.400Z,101103.59
2023-05-01T09:28:45.367Z,101111.69
2023-05-01T09:31:32.455Z,101104.75
2023-05-01T09:34:06.938Z,101103.69
2023-05-01T09:36:41.130Z,101102.81
2023-05-01T09:39:23.154Z,101097.94
2023-05-01T09:41:56.040Z,101099.00
2023-05-01T09:44:28.516Z,101100.72
2023-05-01T09:47:02.137Z,101103.69
2023-05-01T09:49:50.318Z,101095.44
2023-05-01T09:52:33.139Z,101098.34
2023-05-01T09:55:18.951Z,101099.94
2023-05-01T09:57:51.570Z,101110.69
2023-05-01T10:00:25.171Z,101106.19
2023-05-01T10:02:57.880Z,101109.44
2023-05-01T10:05:44.089Z,101110.59
2023-05-01T10:08:17.207Z,101102.34
2023-05-01T10:11:08.178Z,101107.59
2023-05-01T10:13:41.097Z,101106.31
2023-05-01T10:16:30.383Z,101106.56
2023-05-01T10:19:04.537Z,101115.09
2023-05-01T10:21:37.799Z,101109.94
2023-05-01T10:24:11.203Z,101114.75
2023-05-01T10:26:44.727Z,101115.25
2023-05-01T10:29:23.355Z,101117.81
2023-05-01T10:31:57.068Z,101109.81
2023-05-01T10:34:34.927Z,101120.69
2023-05-01T10:37:23.260Z,101116.56
2023-05-01T10:39:55.861Z,101118.56
2023-05-01T10:42:28.984Z,101115.06
2023-05-01T10:45:30.874Z,101118.28
2023-05-01T10:48:03.908Z,101111.75
2023-05-01T10:51:17.253Z,101132.69
2023-05-01T10:54:12.262Z,101125.06
2023-05-01T10:56:44.897Z,101128.78
2023-05-01T10:59:17.804Z,101124.31
2023-05-01T11:01:52.172Z,101131.88
2023-05-01T11:04:24.845Z,101139.47
2023-05-01T11:07:07.781Z,101122.44
2023-05-01T11:09:57.592Z,101127.91
2023-05-01T11:12:48.412Z,101121.41
2023-05-01T11:15:34.427Z,101119.34
2023-05-01T11:18:07.517Z,101132.59
2023-05-01T11:20:47.864Z,101126.38
2023-05-01T11:23:22.698Z,101141.81
2023-05-01T11:26:04.869Z,101131.16
2023-05-01T11:28:39.236Z,101132.69
2023-05-01T11:31:18.687Z,101131.72
2023-05-01T11:33:51.484Z,101128.53
2023-05-01T11:36:24.626Z,101133.03
2023-05-01T11:38:59.859Z,101124.09
2023-05-01T11:41:32.519Z,101124.38
2023-05-01T11:44:05.115Z,101129.69
2023-05-01T11:46:37.671Z,101137.69
2023-05-01T11:49:12.183Z,101121.19
2023-05-01T11:51:44.706Z,101122.84
2023-05-01T11:54:17.415Z,101127.88
2023-05-01T11:57:02.300Z,101119.38
2023-05-01T11:59:34.927Z,101130.81
2023-05-01T12:02:20.354Z,101120.84
2023-05-01T12:04:53.975Z,101120.81
2023-05-01T12:07:26.598Z,101125.22
2023-05-01T12:09:59.666Z,101136.13
2023-05-01T12:12:32.875Z,101138.47
2023-05-01T12:15:06.266Z,101139.44
2023-05-01T12:17:38.879Z,101137.66
2023-05-01T12:20:12.018Z,101140.69
2023-05-01T12:22:50.941Z,101134.84
2023-05-01T12:25:31.949Z,101135.16
2023-05-01T12:28:11.220Z,101137.88
2023-05-01T12:30:45.876Z,101139.84
2023-05-01T12:33:21.074Z,101132.84
2023-05-01T12:35:53.705Z,101151.53
2023-05-01T12:38:26.193Z,101136.56
2023-05-01T12:41:01.208Z,101133.94
2023-05-01T12:43:37.049Z,101129.63
2023-05-01T12:46:16.678Z,101126.03
2023-05-01T12:48:50.949Z,101128.34
2023-05-01T12:51:24.692Z,101129.94
2023-05-01T12:53:58.149Z,101123.22
2023-05-01T12:56:30.796Z,101116.75
2023-05-01T12:59:03.398Z,101132.75
2023-05-01T13:01:36.031Z,101130.94
2023-05-01T13:04:08.875Z,101134.81
2023-05-01T13:06:41.941Z,101129.19
2023-05-01T13:09:16.832Z,101133.91
2023-05-01T13:12:06.739Z,101149.25
2023-05-01T13:14:41.796Z,101148.72
2023-05-01T13:17:24.335Z,101136.97
2023-05-01T13:20:04.198Z,101145.09
2023-05-01T13:22:39.031Z,101140.50
2023-05-01T13:25:23.364Z,101136.56
2023-05-01T13:27:56.094Z,101129.34
2023-05-01T13:30:33.827Z,101128.03
2023-05-01T13:33:07.803Z,101141.28
2023-05-01T13:35:40.727Z,101128.09
2023-05-01T13:38:13.746Z,101137.88
2023-05-01T13:40:46.282Z,101127.13
2023-05-01T13:43:23.920Z,101134.22
2023-05-01T13:46:00.315Z,101135.09
2023-05-01T13:48:32.907Z,101134.44
2023-05-01T13:51:05.453Z,101142.94
2023-05-01T13:53:40.604Z,101139.44
2023-05-01T13:56:13.592Z,101146.34
2023-05-01T13:58:46.678Z,101150.97
2023-05-01T14:01:22.444Z,101145.22
2023-05-01T14:04:00.460Z,101151.69
2023-05-01T14:06:36.787Z,101154.44
2023-05-01T14:09:09.889Z,101153.34
2023-05-01T14:11:48.458Z,101161.44
2023-05-01T14:14:20.950Z,101163.94
2023-05-01T14:16:54.130Z,101152.91
2023-05-01T14:19:27.252Z,101158.84
2023-05-01T14:21:59.844Z,101154.69
2023-05-01T14:24:41.073Z,101153.66
2023-05-01T14:27:15.260Z,101154.78
2023-05-01T14:29:49.734Z,101142.91
2023-05-01T14:32:22.535Z,101157.34
2023-05-01T14:34:55.244Z,101143.06
2023-05-01T14:37:27.780Z,101135.75
2023-05-01T14:40:03.072Z,101153.88
2023-05-01T14:42:35.821Z,101150.22
2023-05-01T14:45:13.382Z,101146.09
2023-05-01T14:47:48.359Z,101153.56
2023-05-01T14:50:24.233Z,101148.19
2023-05-01T14:52:59.716Z,101156.66
2023-05-01T14:55:34.779Z,101166.50
2023-05-01T14:58:08.045Z,101168.41
2023-05-01T15:00:40.650Z,101169.84
2023-05-01T15:03:13.458Z,101173.03
2023-05-01T15:05:46.225Z,101174.72
2023-05-01T15:08:18.916Z,101174.00
2023-05-01T15:10:54.369Z,101174.59
2023-05-01T15:13:27.163Z,101177.28
2023-05-01T15:15:59.836Z,101168.31
2023-05-01T15:18:32.441Z,101175.94
2023-05-01T15:21:05.264Z,101170.41
2023-05-01T15:23:37.881Z,101166.75
2023-05-01T15:26:10.872Z,101167.34
2023-05-01T15:28:43.445Z,101170.47
2023-05-01T15:31:16.203Z,101184.72
2023-05-01T15:33:48.868Z,101165.97
2023-05-01T15:36:21.407Z,101166.13
2023-05-01T15:38:54.424Z,101177.53
2023-05-01T15:41:27.075Z,101171.44
2023-05-01T15:43:59.590Z,101176.34
2023-05-01T15:46:32.206Z,101194.16
2023-05-01T15:49:09.708Z,101181.13
2023-05-01T15:51:42.323Z,101185.19
2023-05-01T15:54:14.890Z,101189.19
2023-05-01T15:56:47.437Z,101183.50
2023-05-01T15:59:19.989Z,101200.09
2023-05-01T16:01:54.912Z,101191.94
2023-05-01T16:04:27.575Z,101191.13
2023-05-01T16:07:02.817Z,101193.53
2023-05-01T16:09:35.716Z,101205.00
2023-05-01T16:12:08.646Z,101206.50
2023-05-01T16:14:42.155Z,101214.31
2023-05-01T16:17:18.229Z,101203.47
2023-05-01T16:19:52.716Z,101202.94
2023-05-01T16:22:25.383Z,101202.81
2023-05-01T16:25:01.083Z,101220.63
2023-05-01T16:27:33.710Z,101208.56
2023-05-01T16:30:07.430Z,101218.72
2023-05-01T16:32:41.127Z,101225.56
2023-05-01T16:35:18.286Z,101218.06
2023-05-01T16:37:50.839Z,101226.78
2023-05-01T16:40:23.553Z,101234.38
2023-05-01T16:43:00.733Z,101239.72
2023-05-01T16:45:33.327Z,101238.78
2023-05-01T16:48:06.377Z,101244.09
2023-05-01T16:50:41.224Z,101253.72
2023-05-01T16:53:13.744Z,101251.84
2023-05-01T16:55:46.463Z,101254.81
2023-05-01T16:58:19.156Z,101249.94
2023-05-01T17:00:51.638Z,101250.09
2023-05-01T17:03:24.254Z,101252.16
2023-05-01T17:05:59.234Z,101252.19
2023-05-01T17:08:31.966Z,101251.69
2023-05-01T17:11:06.444Z,101249.28
2023-05-01T17:13:39.049Z,101256.91
2023-05-01T17:16:11.586Z,101254.13
2023-05-01T17:18:44.108Z,101256.00
2023-05-01T17:21:17.174Z,101253.06
2023-05-01T17:23:49.751Z,101256.63
2023-05-01T17:26:22.784Z,101250.69
2023-05-01T17:28:55.346Z,101260.34
2023-05-01T17:31:28.247Z,101260.78
2023-05-01T17:34:03.220Z,101269.59
2023-05-01T17:36:36.610Z,101261.53
2023-05-01T17:39:09.522Z,101263.09
2023-05-01T17:41:41.990Z,101261.16
2023-05-01T17:44:14.575Z,101269.94
2023-05-01T17:46:47.100Z,101269.13
2023-05-01T17:49:20.569Z,101266.94
2023-05-01T17:51:53.047Z,101272.84
2023-05-01T17:54:25.662Z,101276.03
2023-05-01T17:56:58.265Z,101279.16
2023-05-01T17:59:30.972Z,101284.63
2023-05-01T18:02:03.871Z,101284.56
2023-05-01T18:04:38.259Z,101291.13
2023-05-01T18:07:10.780Z,101296.72
2023-05-01T18:09:43.485Z,101288.47
2023-05-01T18:12:16.089Z,101301.56
2023-05-01T18:14:48.642Z,101296.63
2023-05-01T18:17:23.011Z,101310.41
2023-05-01T18:19:55.587Z,101325.00
2023-05-01T18:22:28.544Z,101310.88
2023-05-01T18:25:01.047Z,101325.06
2023-05-01T18:27:33.601Z,101326.06
2023-05-01T18:30:07.117Z,101317.28
2023-05-01T18:32:47.047Z,101327.41
2023-05-01T18:35:23.342Z,101334.78
2023-05-01T18:37:55.865Z,101333.88
2023-05-01T18:40:28.401Z,101339.88
2023-05-01T18:43:01.161Z,101340.41
2023-05-01T18:45:33.766Z,101351.53
2023-05-01T18:48:06.906Z,101354.16
2023-05-01T18:50:39.519Z,101353.03
2023-05-01T18:53:12.279Z,101367.75
2023-05-01T18:55:44.919Z,101367.22
2023-05-01T18:58:17.472Z,101371.16
2023-05-01T19:00:50.014Z,101366.38
2023-05-01T19:03:22.655Z,101366.75
2023-05-01T19:05:55.336Z,101368.94
2023-05-01T19:08:27.948Z,101378.09
2023-05-01T19:11:00.540Z,101376.19
2023-05-01T19:13:33.823Z,101384.00
2023-05-01T19:16:06.938Z,101386.75
2023-05-01T19:18:42.182Z,101389.38
2023-05-01T19:21:15.328Z,101401.53
2023-05-01T19:23:49.103Z,101406.50
2023-05-01T19:26:23.265Z,101401.91
2023-05-01T19:28:58.016Z,101402.56
2023-05-01T19:31:30.854Z,101398.13
2023-05-01T19:34:03.482Z,101399.50
2023-05-01T19:36:38.610Z,101401.78
2023-05-01T19:39:11.277Z,101411.13
2023-05-01T19:41:44.776Z,101413.16
2023-05-01T19:44:17.662Z,101415.53
2023-05-01T19:46:50.269Z,101416.47
2023-05-01T19:49:24.958Z,101428.84
2023-05-01T19:51:57.649Z,101425.78
2023-05-01T19:54:30.403Z,101430.78
2023-05-01T19:57:03.015Z,101443.00
2023-05-01T19:59:38.742Z,101439.16
2023-05-01T20:02:11.259Z,101444.06
2023-05-01T20:04:44.312Z,101437.75
2023-05-01T20:07:18.505Z,101437.50
2023-05-01T20:09:52.666Z,101449.59
2023-05-01T20:12:25.412Z,101454.69
2023-05-01T20:15:00.668Z,101459.88
2023-05-01T20:17:34.033Z,101467.03
2023-05-01T20:20:07.435Z,101469.00
2023-05-01T20:22:40.016Z,101471.69
2023-05-01T20:25:13.719Z,101483.34
2023-05-01T20:27:46.435Z,101476.31
2023-05-01T20:30:19.253Z,101473.84
2023-05-01T20:32:52.336Z,101487.09
2023-05-01T20:35:24.884Z,101481.81
2023-05-01T20:37:57.536Z,101482.31
2023-05-01T20:40:31.916Z,101479.72
2023-05-01T20:43:04.512Z,101481.88
2023-05-01T20:45:37.584Z,101478.00
2023-05-01T20:48:11.328Z,101485.00
2023-05-01T20:50:45.476Z,101492.88
2023-05-01T20:53:19.038Z,101490.97
2023-05-01T20:55:51.646Z,101487.72
2023-05-01T20:58:24.276Z,101493.56
2023-05-01T21:00:59.089Z,101485.81
2023-05-01T21:03:32.537Z,101489.16
2023-05-01T21:06:05.696Z,101495.53
2023-05-01T21:08:38.276Z,101493.78
2023-05-01T21:11:10.833Z,101498.72
2023-05-01T21:13:43.426Z,101491.69
2023-05-01T21:16:16.676Z,101487.06
2023-05-01T21:18:49.265Z,101500.31
2023-05-01T21:21:21.974Z,101496.16
2023-05-01T21:23:54.753Z,101498.84
2023-05-01T21:26:29.389Z,101501.28
2023-05-01T21:29:02.595Z,101511.31
2023-05-01T21:31:36.813Z,101516.63
2023-05-01T21:34:09.649Z,101523.09
2023-05-01T21:36:45.317Z,101515.91
2023-05-01T21:39:17.853Z,101528.41
2023-05-01T21:41:51.401Z,101518.97
2023-05-01T21:44:30.703Z,101519.63
2023-05-01T21:47:03.370Z,101532.34
2023-05-01T21:49:39.585Z,101531.13
2023-05-01T21:52:14.828Z,101539.25
2023-05-01T21:54:47.340Z,101530.50
2023-05-01T21:57:19.900Z,101536.56
2023-05-01T21:59:56.511Z,101531.03
2023-05-01T22:02:40.827Z,101533.88
2023-05-01T22:05:16.779Z,101536.22
2023-05-01T22:07:52.083Z,101533.66
2023-05-01T22:10:24.689Z,101537.25
2023-05-01T22:12:57.224Z,101543.41
2023-05-01T22:15:29.951Z,101542.44
2023-05-01T22:18:02.699Z,101543.16
2023-05-01T22:20:35.329Z,101535.88
2023-05-01T22:23:07.826Z,101539.81
2023-05-01T22:25:40.336Z,101544.19
2023-05-01T22:28:12.957Z,101543.50
2023-05-01T22:30:46.763Z,101543.50
2023-05-01T22:33:19.301Z,101546.34
2023-05-01T22:35:51.953Z,101561.28
2023-05-01T22:38:24.698Z,101557.75
2023-05-01T22:40:57.313Z,101555.91
2023-05-01T22:43:29.982Z,101556.34
2023-05-01T22:46:03.027Z,101574.28
2023-05-01T22:48:35.840Z,101570.72
2023-05-01T22:51:08.371Z,101571.50
2023-05-01T22:53:41.274Z,101575.09
2023-05-01T22:56:13.976Z,101580.13
2023-05-01T22:58:47.157Z,101576.59
2023-05-01T23:01:19.901Z,101581.69
2023-05-01T23:03:52.842Z,101583.31
2023-05-01T23:06:25.652Z,101581.09
2023-05-01T23:09:00.054Z,101578.81
2023-05-01T23:11:34.298Z,101591.34
2023-05-01T23:14:07.307Z,101598.53
2023-05-01T23:16:41.759Z,101596.91
2023-05-01T23:19:25.181Z,101601.28
2023-05-01T23:22:09.911Z,101601.41
2023-05-01T23:24:47.613Z,101610.88
2023-05-01T23:27:22.316Z,101607.78
2023-05-01T23:29:58.103Z,101597.19
2023-05-01T23:32:31.866Z,101606.63
2023-05-01T23:35:21.577Z,101614.34
2023-05-01T23:37:54.254Z,101596.69
2023-05-01T23:40:26.860Z,101610.75
2023-05-01T23:42:59.459Z,101610.16
2023-05-01T23:45:32.530Z,101613.41
2023-05-01T23:48:05.927Z,101616.22
2023-05-01T23:50:39.240Z,101618.03
2023-05-01T23:53:11.926Z,101618.19
2023-05-01T23:55:46.849Z,101615.97
2023-05-01T23:58:19.725Z,101627.59
